aviador You're here:

SBCG Decoded Metar

CAMPO GRANDE in BRAZIL
Report Time2018-02-22 08:00:00
UTC Time2018-02-22 08:45:00
Flight Rules vfr VFR
Wind120° at 05 kt
W.Decomp.*RWY 06: 1.2 kt HW 4.9 kt RCW
W.Rank120° ranks 8
Current wind is below 120° avg. (6.9)
Visibility9999 m
Phenomena:N/A
Clouds:N/A
Expected CloudBase > 1,200 ft AGL from Temp-Dew spread
CeilingNone
Temp20°C (ISA +9)
Dew Point17°C (83% RH)
QNH1012 hPa
Density Alt3,173 ft
Elevation1,860 ft
Report Wrong Elevation
Raw Report
METAR SBCG 220800Z 12005KT CAVOK 20/17 Q1012=

Extra information for SBCG:More info

Metar Taf Metar & Taf Last 4 Metars F.Rules Stats Wind Profile Meteogram Temp Stats Airport Information Weather charts Add Link Nearby VenuesMetar ALERT Operation Metar Decoded Social comments